sensor_id;sensor_type;location;lat;lon;timestamp;pressure;altitude;pressure_sealevel;temperature;humidity
54194;BME280;40102;50.906;6.972;2023-03-13T00:01:51;99937.59;;;9.43;82.45
54194;BME280;40102;50.906;6.972;2023-03-13T00:04:17;99925.88;;;9.46;82.76
54194;BME280;40102;50.906;6.972;2023-03-13T00:06:42;99923.09;;;9.47;82.60
54194;BME280;40102;50.906;6.972;2023-03-13T00:09:10;99930.34;;;9.45;82.44
54194;BME280;40102;50.906;6.972;2023-03-13T00:11:36;99932.34;;;9.41;82.37
54194;BME280;40102;50.906;6.972;2023-03-13T00:14:03;99921.69;;;9.41;82.92
54194;BME280;40102;50.906;6.972;2023-03-13T00:16:29;99917.09;;;9.44;82.47
54194;BME280;40102;50.906;6.972;2023-03-13T00:18:56;99902.88;;;9.43;82.75
54194;BME280;40102;50.906;6.972;2023-03-13T00:21:24;99907.66;;;9.52;82.98
54194;BME280;40102;50.906;6.972;2023-03-13T00:23:53;99888.84;;;9.54;82.48
54194;BME280;40102;50.906;6.972;2023-03-13T00:26:22;99880.00;;;9.53;83.12
54194;BME280;40102;50.906;6.972;2023-03-13T00:28:48;99877.13;;;9.56;82.60
54194;BME280;40102;50.906;6.972;2023-03-13T00:31:41;99871.78;;;9.56;82.68
54194;BME280;40102;50.906;6.972;2023-03-13T00:34:06;99853.84;;;9.58;83.05
54194;BME280;40102;50.906;6.972;2023-03-13T00:36:33;99848.97;;;9.65;82.90
54194;BME280;40102;50.906;6.972;2023-03-13T00:38:59;99848.78;;;9.68;82.80
54194;BME280;40102;50.906;6.972;2023-03-13T00:41:27;99843.22;;;9.71;82.67
54194;BME280;40102;50.906;6.972;2023-03-13T00:43:53;99833.41;;;9.71;82.87
54194;BME280;40102;50.906;6.972;2023-03-13T00:46:21;99841.50;;;9.70;83.29
54194;BME280;40102;50.906;6.972;2023-03-13T00:48:47;99827.19;;;9.71;84.46
54194;BME280;40102;50.906;6.972;2023-03-13T00:51:14;99827.19;;;9.71;84.76
54194;BME280;40102;50.906;6.972;2023-03-13T00:53:40;99824.63;;;9.69;85.45
54194;BME280;40102;50.906;6.972;2023-03-13T00:56:08;99813.09;;;9.69;86.10
54194;BME280;40102;50.906;6.972;2023-03-13T00:58:36;99801.97;;;9.62;86.12
54194;BME280;40102;50.906;6.972;2023-03-13T01:03:44;99791.78;;;9.55;87.63
54194;BME280;40102;50.906;6.972;2023-03-13T01:06:13;99794.47;;;9.55;87.32
54194;BME280;40102;50.906;6.972;2023-03-13T01:08:39;99796.38;;;9.53;87.48
54194;BME280;40102;50.906;6.972;2023-03-13T01:11:07;99800.97;;;9.51;87.55
54194;BME280;40102;50.906;6.972;2023-03-13T01:13:34;99793.34;;;9.45;87.99
54194;BME280;40102;50.906;6.972;2023-03-13T01:16:15;99792.28;;;9.47;88.65
54194;BME280;40102;50.906;6.972;2023-03-13T01:18:43;99776.09;;;9.50;88.73
54194;BME280;40102;50.906;6.972;2023-03-13T01:21:09;99773.31;;;9.52;88.41
54194;BME280;40102;50.906;6.972;2023-03-13T01:23:35;99779.31;;;9.55;88.81
54194;BME280;40102;50.906;6.972;2023-03-13T01:26:03;99769.56;;;9.54;88.75
54194;BME280;40102;50.906;6.972;2023-03-13T01:28:29;99771.19;;;9.57;89.02
54194;BME280;40102;50.906;6.972;2023-03-13T01:30:54;99766.06;;;9.54;88.90
54194;BME280;40102;50.906;6.972;2023-03-13T01:33:20;99758.91;;;9.54;89.25
54194;BME280;40102;50.906;6.972;2023-03-13T01:35:46;99769.38;;;9.57;88.86
54194;BME280;40102;50.906;6.972;2023-03-13T01:38:12;99752.59;;;9.55;89.25
54194;BME280;40102;50.906;6.972;2023-03-13T01:40:43;99748.13;;;9.56;89.47
54194;BME280;40102;50.906;6.972;2023-03-13T01:43:27;99744.50;;;9.57;89.69
54194;BME280;40102;50.906;6.972;2023-03-13T01:45:57;99739.16;;;9.57;89.58
54194;BME280;40102;50.906;6.972;2023-03-13T01:48:30;99722.38;;;9.55;89.68
54194;BME280;40102;50.906;6.972;2023-03-13T01:50:59;99729.44;;;9.56;89.97
54194;BME280;40102;50.906;6.972;2023-03-13T01:53:26;99724.00;;;9.57;89.90
54194;BME280;40102;50.906;6.972;2023-03-13T01:55:54;99728.16;;;9.61;89.62
54194;BME280;40102;50.906;6.972;2023-03-13T01:58:21;99716.22;;;9.67;89.30
54194;BME280;40102;50.906;6.972;2023-03-13T02:00:47;99711.84;;;9.66;89.53
54194;BME280;40102;50.906;6.972;2023-03-13T02:03:16;99706.50;;;9.66;89.86
54194;BME280;40102;50.906;6.972;2023-03-13T02:05:45;99700.19;;;9.67;89.74
54194;BME280;40102;50.906;6.972;2023-03-13T02:08:31;99677.88;;;9.68;89.94
54194;BME280;40102;50.906;6.972;2023-03-13T02:11:09;99684.06;;;9.68;90.07
54194;BME280;40102;50.906;6.972;2023-03-13T02:13:36;99675.75;;;9.73;90.08
54194;BME280;40102;50.906;6.972;2023-03-13T02:16:02;99665.06;;;9.73;90.04
54194;BME280;40102;50.906;6.972;2023-03-13T02:18:27;99654.28;;;9.74;89.96
54194;BME280;40102;50.906;6.972;2023-03-13T02:20:57;99665.06;;;9.73;90.23
54194;BME280;40102;50.906;6.972;2023-03-13T02:23:31;99642.75;;;9.74;90.67
54194;BME280;40102;50.906;6.972;2023-03-13T02:26:00;99632.91;;;9.74;90.48
54194;BME280;40102;50.906;6.972;2023-03-13T02:28:33;99632.91;;;9.74;90.82
54194;BME280;40102;50.906;6.972;2023-03-13T02:31:00;99633.44;;;9.80;90.88
54194;BME280;40102;50.906;6.972;2023-03-13T02:33:28;99621.91;;;9.79;91.50
54194;BME280;40102;50.906;6.972;2023-03-13T02:35:56;99620.84;;;9.82;91.91
54194;BME280;40102;50.906;6.972;2023-03-13T02:38:26;99617.63;;;9.77;92.98
54194;BME280;40102;50.906;6.972;2023-03-13T02:40:54;99619.34;;;9.78;94.36
54194;BME280;40102;50.906;6.972;2023-03-13T02:43:29;99617.00;;;9.73;95.30
54194;BME280;40102;50.906;6.972;2023-03-13T02:46:13;99618.19;;;9.69;95.71
54194;BME280;40102;50.906;6.972;2023-03-13T02:48:41;99611.44;;;9.63;96.02
54194;BME280;40102;50.906;6.972;2023-03-13T02:51:15;99612.63;;;9.59;98.00
54194;BME280;40102;50.906;6.972;2023-03-13T02:53:42;99613.69;;;9.57;98.02
54194;BME280;40102;50.906;6.972;2023-03-13T02:56:10;99607.81;;;9.52;99.45
54194;BME280;40102;50.906;6.972;2023-03-13T02:58:40;99615.81;;;9.52;100.00
54194;BME280;40102;50.906;6.972;2023-03-13T03:01:06;99612.06;;;9.54;100.00
54194;BME280;40102;50.906;6.972;2023-03-13T03:03:33;99605.88;;;9.54;100.00
54194;BME280;40102;50.906;6.972;2023-03-13T03:05:59;99593.38;;;9.54;100.00
54194;BME280;40102;50.906;6.972;2023-03-13T03:08:25;99590.63;;;9.56;100.00
54194;BME280;40102;50.906;6.972;2023-03-13T03:10:50;99586.25;;;9.55;100.00
54194;BME280;40102;50.906;6.972;2023-03-13T03:13:16;99580.03;;;9.54;100.00
54194;BME280;40102;50.906;6.972;2023-03-13T03:15:41;99569.47;;;9.53;100.00
54194;BME280;40102;50.906;6.972;2023-03-13T03:18:07;99580.91;;;9.55;100.00
54194;BME280;40102;50.906;6.972;2023-03-13T03:20:33;99566.69;;;9.54;100.00
54194;BME280;40102;50.906;6.972;2023-03-13T03:22:58;99558.47;;;9.57;100.00
54194;BME280;40102;50.906;6.972;2023-03-13T03:25:23;99564.56;;;9.59;100.00
54194;BME280;40102;50.906;6.972;2023-03-13T03:27:49;99562.63;;;9.61;100.00
54194;BME280;40102;50.906;6.972;2023-03-13T03:30:15;99567.75;;;9.64;100.00
54194;BME280;40102;50.906;6.972;2023-03-13T03:32:41;99569.47;;;9.65;100.00
54194;BME280;40102;50.906;6.972;2023-03-13T03:35:07;99574.50;;;9.70;100.00
54194;BME280;40102;50.906;6.972;2023-03-13T03:37:32;99576.41;;;9.68;99.95
54194;BME280;40102;50.906;6.972;2023-03-13T03:39:58;99572.78;;;9.69;99.82
54194;BME280;40102;50.906;6.972;2023-03-13T03:42:23;99582.59;;;9.68;99.88
54194;BME280;40102;50.906;6.972;2023-03-13T03:44:48;99568.63;;;9.65;100.00
54194;BME280;40102;50.906;6.972;2023-03-13T03:47:14;99571.06;;;9.68;99.94
54194;BME280;40102;50.906;6.972;2023-03-13T03:49:39;99570.75;;;9.72;100.00
54194;BME280;40102;50.906;6.972;2023-03-13T03:52:05;99559.53;;;9.80;99.67
54194;BME280;40102;50.906;6.972;2023-03-13T03:54:30;99555.56;;;9.86;99.17
54194;BME280;40102;50.906;6.972;2023-03-13T03:56:56;99543.50;;;9.93;98.93
54194;BME280;40102;50.906;6.972;2023-03-13T03:59:21;99553.09;;;9.95;99.22
54194;BME280;40102;50.906;6.972;2023-03-13T04:01:47;99538.66;;;9.98;99.13
54194;BME280;40102;50.906;6.972;2023-03-13T04:04:12;99534.19;;;9.98;99.13
54194;BME280;40102;50.906;6.972;2023-03-13T04:06:38;99523.28;;;10.01;99.01
54194;BME280;40102;50.906;6.972;2023-03-13T04:09:03;99514.28;;;10.02;99.34
54194;BME280;40102;50.906;6.972;2023-03-13T04:11:29;99524.53;;;10.09;99.00
54194;BME280;40102;50.906;6.972;2023-03-13T04:13:54;99530.19;;;10.17;98.83
54194;BME280;40102;50.906;6.972;2023-03-13T04:16:20;99529.22;;;10.18;98.86
54194;BME280;40102;50.906;6.972;2023-03-13T04:18:45;99524.31;;;10.24;98.94
54194;BME280;40102;50.906;6.972;2023-03-13T04:21:10;99512.03;;;10.22;98.12
54194;BME280;40102;50.906;6.972;2023-03-13T04:23:36;99507.41;;;10.24;98.75
54194;BME280;40102;50.906;6.972;2023-03-13T04:26:01;99506.56;;;10.23;98.85
54194;BME280;40102;50.906;6.972;2023-03-13T04:28:30;99517.47;;;10.20;99.11
54194;BME280;40102;50.906;6.972;2023-03-13T04:30:55;99501.53;;;10.19;99.47
54194;BME280;40102;50.906;6.972;2023-03-13T04:33:25;99507.94;;;10.16;99.68
54194;BME280;40102;50.906;6.972;2023-03-13T04:35:51;99508.06;;;10.15;100.00
54194;BME280;40102;50.906;6.972;2023-03-13T04:38:16;99516.31;;;10.12;100.00
54194;BME280;40102;50.906;6.972;2023-03-13T04:40:41;99513.53;;;10.13;100.00
54194;BME280;40102;50.906;6.972;2023-03-13T04:43:07;99497.03;;;10.19;100.00
54194;BME280;40102;50.906;6.972;2023-03-13T04:45:33;99505.94;;;10.20;100.00
54194;BME280;40102;50.906;6.972;2023-03-13T04:47:58;99509.34;;;10.22;100.00
54194;BME280;40102;50.906;6.972;2023-03-13T04:50:24;99500.38;;;10.23;100.00
54194;BME280;40102;50.906;6.972;2023-03-13T04:52:49;99506.47;;;10.25;100.00
54194;BME280;40102;50.906;6.972;2023-03-13T04:55:16;99498.56;;;10.23;100.00
54194;BME280;40102;50.906;6.972;2023-03-13T04:57:44;99485.31;;;10.22;100.00
54194;BME280;40102;50.906;6.972;2023-03-13T05:00:10;99484.34;;;10.23;100.00
54194;BME280;40102;50.906;6.972;2023-03-13T05:02:36;99489.56;;;10.24;100.00
54194;BME280;40102;50.906;6.972;2023-03-13T05:05:01;99471.59;;;10.26;100.00
54194;BME280;40102;50.906;6.972;2023-03-13T05:07:27;99472.22;;;10.30;100.00
54194;BME280;40102;50.906;6.972;2023-03-13T05:09:52;99469.56;;;10.30;100.00
54194;BME280;40102;50.906;6.972;2023-03-13T05:12:18;99466.16;;;10.28;100.00
54194;BME280;40102;50.906;6.972;2023-03-13T05:14:43;99464.94;;;10.32;100.00
54194;BME280;40102;50.906;6.972;2023-03-13T05:17:08;99470.19;;;10.33;100.00
54194;BME280;40102;50.906;6.972;2023-03-13T05:19:36;99466.66;;;10.33;100.00
54194;BME280;40102;50.906;6.972;2023-03-13T05:22:02;99468.69;;;10.29;100.00
54194;BME280;40102;50.906;6.972;2023-03-13T05:24:27;99475.75;;;10.30;100.00
54194;BME280;40102;50.906;6.972;2023-03-13T05:26:52;99466.88;;;10.30;100.00
54194;BME280;40102;50.906;6.972;2023-03-13T05:29:18;99466.66;;;10.33;100.00
54194;BME280;40102;50.906;6.972;2023-03-13T05:31:43;99459.38;;;10.35;100.00
54194;BME280;40102;50.906;6.972;2023-03-13T05:34:09;99460.13;;;10.37;100.00
54194;BME280;40102;50.906;6.972;2023-03-13T05:36:34;99455.84;;;10.34;100.00
54194;BME280;40102;50.906;6.972;2023-03-13T05:39:00;99455.84;;;10.34;100.00
54194;BME280;40102;50.906;6.972;2023-03-13T05:41:25;99471.88;;;10.34;100.00
54194;BME280;40102;50.906;6.972;2023-03-13T05:43:50;99470.06;;;10.35;100.00
54194;BME280;40102;50.906;6.972;2023-03-13T05:46:16;99461.41;;;10.31;100.00
54194;BME280;40102;50.906;6.972;2023-03-13T05:48:44;99456.81;;;10.33;100.00
54194;BME280;40102;50.906;6.972;2023-03-13T05:51:11;99448.81;;;10.33;100.00
54194;BME280;40102;50.906;6.972;2023-03-13T05:53:36;99435.44;;;10.33;100.00
54194;BME280;40102;50.906;6.972;2023-03-13T05:56:02;99429.75;;;10.38;100.00
54194;BME280;40102;50.906;6.972;2023-03-13T05:58:27;99425.94;;;10.41;100.00
54194;BME280;40102;50.906;6.972;2023-03-13T06:00:53;99418.66;;;10.43;100.00
54194;BME280;40102;50.906;6.972;2023-03-13T06:03:18;99437.53;;;10.52;100.00
54194;BME280;40102;50.906;6.972;2023-03-13T06:05:43;99447.66;;;10.60;100.00
54194;BME280;40102;50.906;6.972;2023-03-13T06:08:12;99460.06;;;10.61;100.00
54194;BME280;40102;50.906;6.972;2023-03-13T06:10:37;99443.16;;;10.60;100.00
54194;BME280;40102;50.906;6.972;2023-03-13T06:13:05;99454.81;;;10.59;100.00
54194;BME280;40102;50.906;6.972;2023-03-13T06:15:31;99431.38;;;10.63;100.00
54194;BME280;40102;50.906;6.972;2023-03-13T06:17:56;99456.31;;;10.63;100.00
54194;BME280;40102;50.906;6.972;2023-03-13T06:20:22;99469.91;;;10.60;100.00
54194;BME280;40102;50.906;6.972;2023-03-13T06:22:47;99469.78;;;10.62;100.00
54194;BME280;40102;50.906;6.972;2023-03-13T06:25:13;99482.19;;;10.63;100.00
54194;BME280;40102;50.906;6.972;2023-03-13T06:27:40;99483.38;;;10.59;100.00
54194;BME280;40102;50.906;6.972;2023-03-13T06:30:06;99474.50;;;10.58;100.00
54194;BME280;40102;50.906;6.972;2023-03-13T06:32:32;99473.44;;;10.61;100.00
54194;BME280;40102;50.906;6.972;2023-03-13T06:34:58;99469.66;;;10.63;100.00
54194;BME280;40102;50.906;6.972;2023-03-13T06:37:23;99478.53;;;10.64;100.00
54194;BME280;40102;50.906;6.972;2023-03-13T06:39:49;99478.94;;;10.70;100.00
54194;BME280;40102;50.906;6.972;2023-03-13T06:42:14;99487.22;;;10.79;100.00
54194;BME280;40102;50.906;6.972;2023-03-13T06:44:39;99477.78;;;10.86;100.00
54194;BME280;40102;50.906;6.972;2023-03-13T06:47:05;99479.47;;;10.87;100.00
54194;BME280;40102;50.906;6.972;2023-03-13T06:49:31;99484.09;;;10.85;100.00
54194;BME280;40102;50.906;6.972;2023-03-13T06:51:57;99477.41;;;10.90;100.00
54194;BME280;40102;50.906;6.972;2023-03-13T06:54:23;99486.81;;;11.07;100.00
54194;BME280;40102;50.906;6.972;2023-03-13T06:56:51;99482.59;;;11.16;99.86
54194;BME280;40102;50.906;6.972;2023-03-13T06:59:16;99480.75;;;11.16;99.02
54194;BME280;40102;50.906;6.972;2023-03-13T07:01:42;99480.75;;;11.16;98.81
54194;BME280;40102;50.906;6.972;2023-03-13T07:04:11;99487.19;;;11.14;99.30
54194;BME280;40102;50.906;6.972;2023-03-13T07:06:37;99487.09;;;11.15;99.53
54194;BME280;40102;50.906;6.972;2023-03-13T07:09:02;99490.34;;;11.08;99.32
54194;BME280;40102;50.906;6.972;2023-03-13T07:11:36;99487.69;;;11.08;99.93
54194;BME280;40102;50.906;6.972;2023-03-13T07:14:20;99485.00;;;11.08;99.58
54194;BME280;40102;50.906;6.972;2023-03-13T07:17:16;99492.06;;;11.20;97.88
54194;BME280;40102;50.906;6.972;2023-03-13T07:20:04;99493.78;;;11.21;97.69
54194;BME280;40102;50.906;6.972;2023-03-13T07:23:07;99486.72;;;11.20;96.86
54194;BME280;40102;50.906;6.972;2023-03-13T07:25:58;99491.84;;;11.23;95.39
54194;BME280;40102;50.906;6.972;2023-03-13T07:28:33;99504.03;;;11.38;95.02
54194;BME280;40102;50.906;6.972;2023-03-13T07:31:32;99486.50;;;11.34;93.42
54194;BME280;40102;50.906;6.972;2023-03-13T07:34:51;99506.97;;;11.57;92.68
54194;BME280;40102;50.906;6.972;2023-03-13T07:37:35;99493.81;;;11.54;91.10
54194;BME280;40102;50.906;6.972;2023-03-13T07:40:51;99473.75;;;11.49;90.57
54194;BME280;40102;50.906;6.972;2023-03-13T07:43:54;99478.59;;;11.55;90.48
54194;BME280;40102;50.906;6.972;2023-03-13T07:46:51;99459.25;;;11.51;89.91
54194;BME280;40102;50.906;6.972;2023-03-13T07:49:54;99452.31;;;11.49;89.88
54194;BME280;40102;50.906;6.972;2023-03-13T07:52:36;99451.34;;;11.61;89.33
54194;BME280;40102;50.906;6.972;2023-03-13T07:55:22;99461.56;;;11.67;88.92
54194;BME280;40102;50.906;6.972;2023-03-13T07:58:01;99454.53;;;11.77;87.22
54194;BME280;40102;50.906;6.972;2023-03-13T08:01:05;99442.09;;;11.65;87.22
54194;BME280;40102;50.906;6.972;2023-03-13T08:03:39;99444.75;;;11.65;88.01
54194;BME280;40102;50.906;6.972;2023-03-13T08:06:33;99452.56;;;11.68;87.13
54194;BME280;40102;50.906;6.972;2023-03-13T08:09:31;99443.91;;;11.64;87.31
54194;BME280;40102;50.906;6.972;2023-03-13T08:15:28;99449.78;;;11.81;86.13
54194;BME280;40102;50.906;6.972;2023-03-13T08:18:01;99438.09;;;11.82;85.40
54194;BME280;40102;50.906;6.972;2023-03-13T08:20:27;99435.16;;;11.85;85.62
54194;BME280;40102;50.906;6.972;2023-03-13T08:22:54;99444.16;;;11.84;85.34
54194;BME280;40102;50.906;6.972;2023-03-13T08:25:20;99430.28;;;11.79;85.66
54194;BME280;40102;50.906;6.972;2023-03-13T08:27:45;99442.81;;;11.89;85.58
54194;BME280;40102;50.906;6.972;2023-03-13T08:30:11;99432.81;;;11.91;85.20
54194;BME280;40102;50.906;6.972;2023-03-13T08:32:39;99431.34;;;11.98;84.67
54194;BME280;40102;50.906;6.972;2023-03-13T08:35:05;99446.31;;;12.01;83.81
54194;BME280;40102;50.906;6.972;2023-03-13T08:37:31;99440.25;;;11.99;84.77
54194;BME280;40102;50.906;6.972;2023-03-13T08:39:56;99431.47;;;11.97;85.03
54194;BME280;40102;50.906;6.972;2023-03-13T08:42:22;99435.97;;;11.96;86.52
54194;BME280;40102;50.906;6.972;2023-03-13T08:44:48;99443.91;;;11.98;87.26
54194;BME280;40102;50.906;6.972;2023-03-13T08:47:14;99437.56;;;11.99;88.15
54194;BME280;40102;50.906;6.972;2023-03-13T08:49:40;99432.19;;;12.10;88.60
54194;BME280;40102;50.906;6.972;2023-03-13T08:52:05;99436.22;;;12.05;87.61
54194;BME280;40102;50.906;6.972;2023-03-13T08:54:34;99436.84;;;11.97;88.12
54194;BME280;40102;50.906;6.972;2023-03-13T08:56:59;99424.66;;;11.93;88.70
54194;BME280;40102;50.906;6.972;2023-03-13T08:59:25;99433.06;;;11.88;88.63
54194;BME280;40102;50.906;6.972;2023-03-13T09:01:56;99432.22;;;11.88;89.42
54194;BME280;40102;50.906;6.972;2023-03-13T09:04:40;99431.47;;;11.97;88.80
54194;BME280;40102;50.906;6.972;2023-03-13T09:07:16;99430.03;;;11.93;88.73
54194;BME280;40102;50.906;6.972;2023-03-13T09:09:48;99423.22;;;11.89;89.43
54194;BME280;40102;50.906;6.972;2023-03-13T09:12:19;99427.34;;;11.93;89.21
54194;BME280;40102;50.906;6.972;2023-03-13T09:14:51;99419.19;;;11.83;89.58
54194;BME280;40102;50.906;6.972;2023-03-13T09:17:26;99419.44;;;11.91;89.27
54194;BME280;40102;50.906;6.972;2023-03-13T09:20:03;99420.06;;;11.84;90.07
54194;BME280;40102;50.906;6.972;2023-03-13T09:22:52;99416.16;;;11.88;90.75
54194;BME280;40102;50.906;6.972;2023-03-13T09:25:18;99423.47;;;11.86;90.52
54194;BME280;40102;50.906;6.972;2023-03-13T09:27:56;99415.19;;;11.78;91.46
54194;BME280;40102;50.906;6.972;2023-03-13T09:30:37;99420.66;;;11.87;91.83
54194;BME280;40102;50.906;6.972;2023-03-13T09:33:26;99395.22;;;11.82;92.64
54194;BME280;40102;50.906;6.972;2023-03-13T09:36:24;99389.00;;;11.81;92.68
54194;BME280;40102;50.906;6.972;2023-03-13T09:39:04;99405.81;;;11.83;92.67
54194;BME280;40102;50.906;6.972;2023-03-13T09:41:55;99399.22;;;11.87;92.21
54194;BME280;40102;50.906;6.972;2023-03-13T09:44:32;99409.81;;;11.89;93.24
54194;BME280;40102;50.906;6.972;2023-03-13T09:47:31;99389.84;;;11.93;92.66
54194;BME280;40102;50.906;6.972;2023-03-13T09:53:13;99382.66;;;11.93;92.25
54194;BME280;40102;50.906;6.972;2023-03-13T09:55:56;99401.16;;;11.96;92.58
54194;BME280;40102;50.906;6.972;2023-03-13T09:58:58;99382.66;;;11.93;93.02
54194;BME280;40102;50.906;6.972;2023-03-13T10:01:30;99390.31;;;11.98;93.05
54194;BME280;40102;50.906;6.972;2023-03-13T10:04:37;99396.50;;;11.98;93.86
54194;BME280;40102;50.906;6.972;2023-03-13T10:07:18;99373.63;;;11.94;93.17
54194;BME280;40102;50.906;6.972;2023-03-13T10:10:50;99372.66;;;11.95;93.51
54194;BME280;40102;50.906;6.972;2023-03-13T10:13:33;99381.16;;;12.00;94.16
54194;BME280;40102;50.906;6.972;2023-03-13T10:16:14;99374.31;;;12.08;93.91
54194;BME280;40102;50.906;6.972;2023-03-13T10:18:58;99371.84;;;12.16;93.42
54194;BME280;40102;50.906;6.972;2023-03-13T10:21:36;99373.28;;;12.20;93.17
54194;BME280;40102;50.906;6.972;2023-03-13T10:27:08;99361.41;;;12.33;92.33
54194;BME280;40102;50.906;6.972;2023-03-13T10:29:33;99354.69;;;12.39;91.79
54194;BME280;40102;50.906;6.972;2023-03-13T10:32:07;99346.44;;;12.52;91.01
54194;BME280;40102;50.906;6.972;2023-03-13T10:34:58;99343.63;;;12.53;91.34
54194;BME280;40102;50.906;6.972;2023-03-13T10:37:29;99330.69;;;12.58;91.40
54194;BME280;40102;50.906;6.972;2023-03-13T10:40:24;99322.91;;;12.55;90.69
54194;BME280;40102;50.906;6.972;2023-03-13T10:42:51;99323.22;;;12.62;89.49
54194;BME280;40102;50.906;6.972;2023-03-13T10:45:20;99336.09;;;12.68;88.51
54194;BME280;40102;50.906;6.972;2023-03-13T10:48:01;99320.72;;;12.70;88.22
54194;BME280;40102;50.906;6.972;2023-03-13T10:50:31;99320.47;;;12.73;88.34
54194;BME280;40102;50.906;6.972;2023-03-13T10:52:56;99335.56;;;12.74;88.75
54194;BME280;40102;50.906;6.972;2023-03-13T10:55:24;99311.03;;;12.79;87.44
54194;BME280;40102;50.906;6.972;2023-03-13T10:57:58;99318.19;;;12.99;86.90
54194;BME280;40102;50.906;6.972;2023-03-13T11:03:00;99319.63;;;13.03;87.12
54194;BME280;40102;50.906;6.972;2023-03-13T11:05:32;99295.91;;;13.08;86.58
54194;BME280;40102;50.906;6.972;2023-03-13T11:11:01;99280.78;;;13.38;83.21
54194;BME280;40102;50.906;6.972;2023-03-13T11:13:42;99273.28;;;13.41;83.55
54194;BME280;40102;50.906;6.972;2023-03-13T11:16:21;99280.19;;;13.34;83.97
54194;BME280;40102;50.906;6.972;2023-03-13T11:19:16;99273.28;;;13.41;84.55
54194;BME280;40102;50.906;6.972;2023-03-13T11:22:00;99278.66;;;13.41;84.79
54194;BME280;40102;50.906;6.972;2023-03-13T11:33:03;99242.75;;;13.52;83.17
54194;BME280;40102;50.906;6.972;2023-03-13T11:36:00;99238.41;;;13.70;82.71
54194;BME280;40102;50.906;6.972;2023-03-13T11:38:40;99245.75;;;13.68;82.72
54194;BME280;40102;50.906;6.972;2023-03-13T11:49:58;99204.41;;;14.17;78.91
54194;BME280;40102;50.906;6.972;2023-03-13T12:00:36;99180.56;;;14.51;76.56
54194;BME280;40102;50.906;6.972;2023-03-13T12:05:44;99174.69;;;14.19;77.51
54194;BME280;40102;50.906;6.972;2023-03-13T12:08:16;99168.75;;;14.15;76.46
54194;BME280;40102;50.906;6.972;2023-03-13T12:11:03;99175.81;;;14.16;76.71
54194;BME280;40102;50.906;6.972;2023-03-13T12:13:56;99186.00;;;14.22;76.21
54194;BME280;40102;50.906;6.972;2023-03-13T12:16:22;99165.03;;;14.26;76.11
54194;BME280;40102;50.906;6.972;2023-03-13T12:18:49;99187.25;;;14.28;76.35
54194;BME280;40102;50.906;6.972;2023-03-13T12:21:29;99177.19;;;14.30;76.44
54194;BME280;40102;50.906;6.972;2023-03-13T12:24:08;99173.81;;;14.28;76.03
54194;BME280;40102;50.906;6.972;2023-03-13T12:32:08;99166.56;;;14.38;74.45
54194;BME280;40102;50.906;6.972;2023-03-13T12:34:58;99147.06;;;14.26;74.91
54194;BME280;40102;50.906;6.972;2023-03-13T12:38:33;99132.78;;;14.26;75.96
54194;BME280;40102;50.906;6.972;2023-03-13T12:40:40;99123.56;;;14.29;75.08
54194;BME280;40102;50.906;6.972;2023-03-13T12:43:21;99133.75;;;14.25;75.50
54194;BME280;40102;50.906;6.972;2023-03-13T12:51:46;99127.34;;;14.45;74.29
54194;BME280;40102;50.906;6.972;2023-03-13T12:59:59;99134.22;;;14.57;73.00
54194;BME280;40102;50.906;6.972;2023-03-13T13:02:30;99115.94;;;14.61;73.96
54194;BME280;40102;50.906;6.972;2023-03-13T13:04:58;99112.00;;;14.55;74.05
54194;BME280;40102;50.906;6.972;2023-03-13T13:07:30;99104.63;;;14.57;74.13
54194;BME280;40102;50.906;6.972;2023-03-13T13:12:39;99103.94;;;14.55;73.75
54194;BME280;40102;50.906;6.972;2023-03-13T13:15:57;99116.84;;;14.52;74.35
54194;BME280;40102;50.906;6.972;2023-03-13T13:18:25;99104.38;;;14.51;74.85
54194;BME280;40102;50.906;6.972;2023-03-13T13:23:37;99102.00;;;14.48;75.48
54194;BME280;40102;50.906;6.972;2023-03-13T13:26:36;99111.06;;;14.47;75.30
54194;BME280;40102;50.906;6.972;2023-03-13T13:36:53;99063.69;;;14.26;77.42
54194;BME280;40102;50.906;6.972;2023-03-13T13:39:33;99074.91;;;14.22;77.93
54194;BME280;40102;50.906;6.972;2023-03-13T13:42:00;99070.63;;;14.29;78.19
54194;BME280;40102;50.906;6.972;2023-03-13T13:44:27;99091.53;;;14.35;77.66
54194;BME280;40102;50.906;6.972;2023-03-13T13:46:56;99058.88;;;14.30;77.94
54194;BME280;40102;50.906;6.972;2023-03-13T13:49:30;99062.03;;;14.16;78.57
54194;BME280;40102;50.906;6.972;2023-03-13T13:57:11;99034.34;;;14.06;79.92
54194;BME280;40102;50.906;6.972;2023-03-13T13:59:44;99039.72;;;14.06;80.67
54194;BME280;40102;50.906;6.972;2023-03-13T14:02:13;99034.72;;;14.20;80.09
54194;BME280;40102;50.906;6.972;2023-03-13T14:07:29;99017.88;;;14.18;79.91
54194;BME280;40102;50.906;6.972;2023-03-13T14:10:06;99016.19;;;14.17;79.69
54194;BME280;40102;50.906;6.972;2023-03-13T14:12:36;98994.22;;;14.22;79.26
54194;BME280;40102;50.906;6.972;2023-03-13T14:15:30;98989.69;;;14.22;79.50
54194;BME280;40102;50.906;6.972;2023-03-13T14:18:08;98975.72;;;14.19;79.82
54194;BME280;40102;50.906;6.972;2023-03-13T14:20:38;98998.16;;;14.27;79.45
54194;BME280;40102;50.906;6.972;2023-03-13T14:23:29;98956.06;;;14.36;78.02
54194;BME280;40102;50.906;6.972;2023-03-13T14:25:55;98985.19;;;14.41;78.29
54194;BME280;40102;50.906;6.972;2023-03-13T14:28:28;98977.25;;;14.49;77.15
54194;BME280;40102;50.906;6.972;2023-03-13T14:30:56;98962.66;;;14.51;77.19
54194;BME280;40102;50.906;6.972;2023-03-13T14:33:23;98963.78;;;14.49;76.72
54194;BME280;40102;50.906;6.972;2023-03-13T14:35:52;98952.28;;;14.56;76.31
54194;BME280;40102;50.906;6.972;2023-03-13T14:38:28;98957.34;;;14.60;76.50
54194;BME280;40102;50.906;6.972;2023-03-13T14:41:20;98948.59;;;14.57;76.06
54194;BME280;40102;50.906;6.972;2023-03-13T14:43:54;98937.81;;;14.57;75.33
54194;BME280;40102;50.906;6.972;2023-03-13T14:46:39;98957.25;;;14.51;74.70
54194;BME280;40102;50.906;6.972;2023-03-13T14:49:17;98931.81;;;14.46;74.84
54194;BME280;40102;50.906;6.972;2023-03-13T14:51:58;98954.34;;;14.45;75.17